Time;durP1;ratioP1;P1;durP2;ratioP2;P2;SDS_P1;SDS_P2;PMS_P1;PMS_P2;Temp;Humidity;BMP_temperature;BMP_pressure;BME280_temperature;BME280_humidity;BME280_pressure;Samples;Min_cycle;Max_cycle;Signal;HPM_P1;HPM_P2
2023/08/23 00:00:17;;;;;;;;;;;19.40;99.90;;;;;;12277295;28;19965;-36
2023/08/23 00:06:19;;;;;;;;;;;19.40;99.90;;;;;;12272948;28;20359;-36
2023/08/23 00:12:21;;;;;;;;;;;19.30;99.90;;;;;;12277135;28;19938;-36
2023/08/23 00:18:23;;;;;;;;;;;19.10;99.90;;;;;;12277396;28;19946;-36
2023/08/23 00:24:24;;;;;;;;;;;19.10;99.90;;;;;;12277972;28;19973;-36
2023/08/23 00:30:26;;;;;;;;;;;19.10;99.90;;;;;;12280286;28;20057;-37
2023/08/23 00:36:28;;;;;;;;;;;19.20;99.90;;;;;;12263602;28;20010;-37
2023/08/23 00:42:30;;;;;;;;;;;19.10;99.90;;;;;;12280521;28;19988;-37
2023/08/23 00:48:32;;;;;;;;;;;19.10;99.90;;;;;;12279847;28;19930;-36
2023/08/23 00:54:34;;;;;;;;;;;19.20;99.90;;;;;;12276480;28;19966;-37
2023/08/23 01:00:35;;;;;;;;;;;19.20;99.90;;;;;;12264110;28;20392;-37
2023/08/23 01:06:55;;;;;;;;;;;19.00;99.90;;;;;;12268285;28;20029;-36
2023/08/23 01:13:20;;;;;;;;;;;18.90;99.90;;;;;;12261609;28;20005;-36
2023/08/23 01:19:37;;;;;;;;;;;18.90;99.90;;;;;;12268645;28;20034;-36
2023/08/23 01:25:49;;;;;;;;;;;18.90;99.90;;;;;;12283179;28;19926;-36
2023/08/23 01:31:53;;;;;;;;;;;19.00;99.90;;;;;;12281595;28;19926;-36
2023/08/23 01:37:55;;;;;;;;;;;18.70;99.90;;;;;;12274957;28;20402;-37
2023/08/23 01:43:57;;;;;;;;;;;18.70;99.90;;;;;;12277944;28;19965;-37
2023/08/23 01:49:58;;;;;;;;;;;18.50;99.90;;;;;;12268556;28;20327;-36
2023/08/23 01:56:00;;;;;;;;;;;18.30;99.90;;;;;;12253793;28;19926;-36
2023/08/23 02:02:02;;;;;;;;;;;18.10;99.90;;;;;;12269896;28;19938;-36
2023/08/23 02:08:04;;;;;;;;;;;17.70;99.90;;;;;;12276169;28;19926;-36
2023/08/23 02:14:05;;;;;;;;;;;17.70;99.90;;;;;;12276287;28;20383;-36
2023/08/23 02:20:07;;;;;;;;;;;17.70;99.90;;;;;;12266195;28;19962;-36
2023/08/23 02:26:09;;;;;;;;;;;17.60;99.90;;;;;;12264836;28;19942;-36
2023/08/23 02:32:11;;;;;;;;;;;17.60;99.90;;;;;;12283185;28;20406;-37
2023/08/23 02:38:13;;;;;;;;;;;17.50;99.90;;;;;;12289106;28;20020;-36
2023/08/23 02:44:15;;;;;;;;;;;17.30;99.90;;;;;;12283962;28;19930;-36
2023/08/23 02:50:16;;;;;;;;;;;17.30;99.90;;;;;;12272176;28;19930;-36
2023/08/23 02:56:18;;;;;;;;;;;17.20;99.90;;;;;;12279621;28;19957;-37
2023/08/23 03:02:20;;;;;;;;;;;17.20;99.90;;;;;;12269296;28;20017;-37
2023/08/23 03:08:22;;;;;;;;;;;17.20;99.90;;;;;;12272159;28;19972;-36
2023/08/23 03:14:24;;;;;;;;;;;17.20;99.90;;;;;;12277578;28;19931;-36
2023/08/23 03:20:26;;;;;;;;;;;16.80;99.90;;;;;;12282000;28;19978;-37
2023/08/23 03:26:27;;;;;;;;;;;16.40;99.90;;;;;;12255603;28;20413;-36
2023/08/23 03:32:29;;;;;;;;;;;16.60;99.90;;;;;;12278992;28;19992;-37
2023/08/23 03:38:31;;;;;;;;;;;16.50;99.90;;;;;;12272767;28;19931;-37
2023/08/23 03:44:33;;;;;;;;;;;16.40;99.90;;;;;;12259753;28;19938;-37
2023/08/23 03:50:35;;;;;;;;;;;16.50;99.90;;;;;;12263124;28;19962;-37
2023/08/23 03:56:36;;;;;;;;;;;16.60;99.90;;;;;;12276422;28;19969;-37
2023/08/23 04:02:38;;;;;;;;;;;16.60;99.90;;;;;;12274549;28;19973;-36
2023/08/23 04:08:40;;;;;;;;;;;16.70;99.90;;;;;;12268994;28;19927;-37
2023/08/23 04:14:42;;;;;;;;;;;16.90;99.90;;;;;;12257692;28;19927;-36
2023/08/23 04:20:44;;;;;;;;;;;17.00;99.90;;;;;;12282185;28;19935;-36
2023/08/23 04:26:45;;;;;;;;;;;17.00;99.90;;;;;;12266046;28;19926;-37
2023/08/23 04:32:47;;;;;;;;;;;17.00;99.90;;;;;;12288431;28;20346;-37
2023/08/23 04:38:49;;;;;;;;;;;17.10;99.90;;;;;;12269835;28;20148;-36
2023/08/23 04:44:51;;;;;;;;;;;17.20;99.90;;;;;;12280404;28;19933;-36
2023/08/23 04:50:56;;;;;;;;;;;17.30;99.90;;;;;;12271074;28;19926;-36
2023/08/23 04:56:58;;;;;;;;;;;17.70;99.90;;;;;;12253117;28;19933;-36
2023/08/23 05:03:00;;;;;;;;;;;18.10;99.90;;;;;;12279472;28;19938;-36
2023/08/23 05:09:04;;;;;;;;;;;18.60;99.90;;;;;;12263823;28;20021;-36
2023/08/23 05:15:06;;;;;;;;;;;18.40;99.90;;;;;;12267891;28;19996;-37
2023/08/23 05:21:09;;;;;;;;;;;18.00;99.90;;;;;;12261922;28;19927;-36
2023/08/23 05:27:11;;;;;;;;;;;17.70;99.90;;;;;;12280563;28;20410;-36
2023/08/23 05:33:12;;;;;;;;;;;17.60;99.90;;;;;;12270347;28;20402;-35
2023/08/23 05:39:14;;;;;;;;;;;17.60;99.90;;;;;;12272014;28;19937;-36
2023/08/23 05:45:16;;;;;;;;;;;17.60;99.90;;;;;;12258158;28;19966;-36
2023/08/23 05:51:18;;;;;;;;;;;17.50;99.90;;;;;;12265586;28;19973;-36
2023/08/23 05:57:20;;;;;;;;;;;17.40;99.90;;;;;;12269981;28;20382;-36
2023/08/23 06:03:21;;;;;;;;;;;17.40;99.90;;;;;;12272554;28;19977;-36
2023/08/23 06:09:23;;;;;;;;;;;17.40;99.90;;;;;;12298681;28;20371;-36
2023/08/23 06:15:25;;;;;;;;;;;17.40;99.90;;;;;;12286753;28;19926;-36
2023/08/23 06:21:27;;;;;;;;;;;17.60;99.90;;;;;;12280815;28;19946;-37
2023/08/23 06:27:28;;;;;;;;;;;17.50;99.90;;;;;;12285672;28;20470;-37
2023/08/23 06:33:30;;;;;;;;;;;17.50;99.90;;;;;;12281877;28;19990;-37
2023/08/23 06:39:32;;;;;;;;;;;17.70;99.90;;;;;;12280095;28;19926;-36
2023/08/23 06:45:35;;;;;;;;;;;17.80;99.90;;;;;;12253923;28;20029;-37
2023/08/23 06:51:38;;;;;;;;;;;17.70;99.90;;;;;;12285892;28;19927;-36
2023/08/23 06:57:40;;;;;;;;;;;17.80;99.90;;;;;;12271921;28;20423;-35
2023/08/23 07:03:43;;;;;;;;;;;17.90;99.90;;;;;;12277206;28;19930;-35
2023/08/23 07:09:45;;;;;;;;;;;18.10;99.90;;;;;;12274916;28;19930;-37
2023/08/23 07:15:47;;;;;;;;;;;18.20;99.90;;;;;;12280384;28;19954;-37
2023/08/23 07:21:49;;;;;;;;;;;18.20;99.90;;;;;;12286485;28;19926;-36
2023/08/23 07:27:51;;;;;;;;;;;18.40;99.90;;;;;;12275353;28;19930;-35
2023/08/23 07:33:52;;;;;;;;;;;18.50;99.90;;;;;;12291457;28;20338;-36
2023/08/23 07:39:55;;;;;;;;;;;18.90;99.90;;;;;;12272177;28;19986;-36
2023/08/23 07:45:58;;;;;;;;;;;18.90;99.90;;;;;;12291976;28;20054;-36
2023/08/23 07:52:00;;;;;;;;;;;19.00;99.90;;;;;;12271987;28;20379;-36
2023/08/23 07:58:02;;;;;;;;;;;19.10;99.90;;;;;;12286718;28;20287;-37
2023/08/23 08:04:04;;;;;;;;;;;19.20;99.90;;;;;;12286935;28;19930;-37
2023/08/23 08:10:06;;;;;;;;;;;19.40;99.90;;;;;;12281398;28;19981;-37
2023/08/23 08:16:08;;;;;;;;;;;19.50;99.90;;;;;;12274981;28;20022;-36
2023/08/23 08:22:10;;;;;;;;;;;19.50;99.90;;;;;;12272870;28;19934;-36
2023/08/23 08:28:12;;;;;;;;;;;19.70;99.90;;;;;;12277842;28;19927;-37
2023/08/23 08:34:14;;;;;;;;;;;19.80;99.90;;;;;;12286545;28;19927;-36
2023/08/23 08:40:16;;;;;;;;;;;19.90;99.90;;;;;;12262153;28;20725;-37
2023/08/23 08:46:18;;;;;;;;;;;20.10;99.90;;;;;;12281969;28;19934;-37
2023/08/23 08:52:24;;;;;;;;;;;20.00;99.90;;;;;;12280072;28;20288;-37
2023/08/23 08:58:27;;;;;;;;;;;20.30;99.90;;;;;;12270342;28;19986;-36
2023/08/23 09:04:30;;;;;;;;;;;20.60;99.90;;;;;;12272673;28;20029;-37
2023/08/23 09:10:31;;;;;;;;;;;21.20;99.90;;;;;;12261068;28;20374;-37
2023/08/23 09:16:33;;;;;;;;;;;21.70;99.90;;;;;;12268726;28;19930;-37
2023/08/23 09:22:35;;;;;;;;;;;22.00;99.90;;;;;;12281401;28;19934;-37
2023/08/23 09:28:38;;;;;;;;;;;22.50;99.90;;;;;;12280609;28;20335;-37
2023/08/23 09:34:39;;;;;;;;;;;22.80;99.90;;;;;;12272557;28;19926;-38
2023/08/23 09:40:41;;;;;;;;;;;23.20;99.90;;;;;;12218539;28;1769105;-38
2023/08/23 09:46:45;;;;;;;;;;;22.40;99.90;;;;;;12281866;28;19930;-36
2023/08/23 09:52:52;;;;;;;;;;;21.40;99.90;;;;;;12300265;28;20017;-36
2023/08/23 09:58:54;;;;;;;;;;;22.10;99.90;;;;;;12277037;28;19930;-37
2023/08/23 10:04:57;;;;;;;;;;;22.40;99.90;;;;;;12283472;28;20418;-36
2023/08/23 10:10:58;;;;;;;;;;;22.80;99.90;;;;;;12287317;28;20009;-36
2023/08/23 10:17:02;;;;;;;;;;;22.60;99.90;;;;;;12290188;28;19935;-37
2023/08/23 10:23:14;;;;;;;;;;;23.00;99.90;;;;;;12295115;28;19938;-37
2023/08/23 10:29:22;;;;;;;;;;;23.50;99.90;;;;;;12280937;28;19973;-37
2023/08/23 10:35:27;;;;;;;;;;;23.70;99.90;;;;;;12283885;28;19934;-39
2023/08/23 10:41:29;;;;;;;;;;;23.90;99.90;;;;;;12274364;28;20399;-38
2023/08/23 10:47:35;;;;;;;;;;;23.90;99.90;;;;;;12282485;28;19926;-37
2023/08/23 10:53:36;;;;;;;;;;;24.10;99.90;;;;;;12288094;28;19934;-37
2023/08/23 10:59:38;;;;;;;;;;;23.90;99.90;;;;;;12286787;28;19927;-37
2023/08/23 11:05:43;;;;;;;;;;;23.50;99.90;;;;;;12287584;28;20342;-37
2023/08/23 11:11:45;;;;;;;;;;;23.80;99.90;;;;;;12276099;28;20294;-37
2023/08/23 11:17:47;;;;;;;;;;;24.20;99.90;;;;;;12264768;28;20410;-38
2023/08/23 11:23:50;;;;;;;;;;;24.30;99.90;;;;;;12246768;23;19930;-37
2023/08/23 11:29:52;;;;;;;;;;;24.20;99.90;;;;;;12232242;29;19965;-39
2023/08/23 11:35:55;;;;;;;;;;;24.60;99.90;;;;;;12237214;28;19927;-39
2023/08/23 11:41:58;;;;;;;;;;;25.00;99.90;;;;;;12236596;29;20297;-37
2023/08/23 11:48:00;;;;;;;;;;;25.50;99.90;;;;;;12233640;29;20034;-38
2023/08/23 11:54:04;;;;;;;;;;;25.50;99.90;;;;;;12237272;29;20029;-37
2023/08/23 12:00:07;;;;;;;;;;;25.00;99.90;;;;;;12234277;29;20582;-37
2023/08/23 12:06:08;;;;;;;;;;;25.40;99.90;;;;;;12233415;29;19950;-38
2023/08/23 12:12:10;;;;;;;;;;;25.60;99.90;;;;;;12230569;29;20501;-37
2023/08/23 12:18:12;;;;;;;;;;;25.10;99.90;;;;;;12229728;29;19934;-39
2023/08/23 12:24:14;;;;;;;;;;;25.20;99.90;;;;;;12230256;29;19935;-39
2023/08/23 12:30:15;;;;;;;;;;;25.60;99.90;;;;;;12230324;29;19935;-38
2023/08/23 12:36:17;;;;;;;;;;;25.50;99.90;;;;;;12231141;29;20342;-38
2023/08/23 12:42:19;;;;;;;;;;;25.50;99.90;;;;;;12229260;29;20060;-38
2023/08/23 12:48:21;;;;;;;;;;;25.80;99.90;;;;;;12227855;29;20417;-38
2023/08/23 12:54:23;;;;;;;;;;;25.60;99.90;;;;;;12223710;29;19970;-37
2023/08/23 13:00:25;;;;;;;;;;;26.00;99.90;;;;;;12220456;29;19930;-38
2023/08/23 13:06:33;;;;;;;;;;;26.10;99.90;;;;;;12230823;29;20190;-37
2023/08/23 13:12:36;;;;;;;;;;;26.00;99.90;;;;;;12229452;29;20280;-37
2023/08/23 13:18:38;;;;;;;;;;;26.10;99.90;;;;;;12230788;29;20009;-38
2023/08/23 13:24:40;;;;;;;;;;;26.20;99.90;;;;;;12231149;29;19981;-39
2023/08/23 13:30:42;;;;;;;;;;;26.30;99.90;;;;;;12230309;29;19931;-38
2023/08/23 13:36:44;;;;;;;;;;;26.20;99.90;;;;;;12233178;29;19931;-38
2023/08/23 13:42:46;;;;;;;;;;;25.30;99.90;;;;;;12227544;29;19927;-39
2023/08/23 13:48:53;;;;;;;;;;;25.50;99.90;;;;;;12226430;29;20026;-37
2023/08/23 13:54:55;;;;;;;;;;;25.80;99.90;;;;;;12228784;29;19934;-39
2023/08/23 14:00:57;;;;;;;;;;;25.90;99.90;;;;;;12226518;29;19931;-38
2023/08/23 14:06:59;;;;;;;;;;;26.00;99.90;;;;;;12227939;29;19927;-37
2023/08/23 14:13:01;;;;;;;;;;;26.10;99.90;;;;;;12228205;29;19938;-38
2023/08/23 14:19:03;;;;;;;;;;;25.40;99.90;;;;;;12228849;29;20030;-38
2023/08/23 14:25:06;;;;;;;;;;;25.60;99.90;;;;;;12235313;29;19931;-38
2023/08/23 14:31:08;;;;;;;;;;;25.70;99.90;;;;;;12232930;29;19937;-36
2023/08/23 14:37:10;;;;;;;;;;;25.90;99.90;;;;;;12236515;29;20319;-37
2023/08/23 14:43:11;;;;;;;;;;;26.10;99.90;;;;;;12235083;29;20001;-37
2023/08/23 14:49:13;;;;;;;;;;;26.10;99.90;;;;;;12236696;29;19935;-37
2023/08/23 14:55:15;;;;;;;;;;;26.20;99.90;;;;;;12236859;29;19938;-37
2023/08/23 15:01:17;;;;;;;;;;;26.40;99.90;;;;;;12232448;29;19931;-37
2023/08/23 15:07:19;;;;;;;;;;;26.70;99.90;;;;;;12234665;29;19931;-38
2023/08/23 15:13:21;;;;;;;;;;;26.30;99.90;;;;;;12241890;28;20014;-37
2023/08/23 15:19:23;;;;;;;;;;;26.10;99.90;;;;;;12232397;29;19931;-37
2023/08/23 15:25:25;;;;;;;;;;;26.20;99.90;;;;;;12231081;29;19937;-37
2023/08/23 15:31:27;;;;;;;;;;;26.50;99.90;;;;;;12231102;29;20379;-36
2023/08/23 15:37:32;;;;;;;;;;;26.40;99.90;;;;;;12227174;29;19930;-39
2023/08/23 15:43:34;;;;;;;;;;;26.30;99.90;;;;;;12226403;29;19997;-38
2023/08/23 15:49:36;;;;;;;;;;;26.40;99.90;;;;;;12233113;29;20417;-37
2023/08/23 15:55:38;;;;;;;;;;;26.70;99.90;;;;;;12229669;29;20029;-37
2023/08/23 16:01:40;;;;;;;;;;;26.70;99.90;;;;;;12228411;29;20447;-37
2023/08/23 16:07:42;;;;;;;;;;;26.50;99.90;;;;;;12228366;29;20001;-37
2023/08/23 16:13:43;;;;;;;;;;;26.80;99.90;;;;;;12226446;29;19941;-37
2023/08/23 16:19:45;;;;;;;;;;;26.70;99.90;;;;;;12226917;29;19937;-38
2023/08/23 16:25:52;;;;;;;;;;;26.40;99.90;;;;;;12225201;29;19931;-38
2023/08/23 16:31:53;;;;;;;;;;;26.30;99.90;;;;;;12229022;29;19974;-37
2023/08/23 16:37:56;;;;;;;;;;;26.40;99.90;;;;;;12228254;29;19938;-37
2023/08/23 16:43:58;;;;;;;;;;;26.70;99.90;;;;;;12229575;29;20334;-39
2023/08/23 16:50:03;;;;;;;;;;;26.10;99.90;;;;;;12226247;29;20033;-37
2023/08/23 16:56:05;;;;;;;;;;;25.90;99.90;;;;;;12233385;28;20443;-37
2023/08/23 17:02:07;;;;;;;;;;;25.90;99.90;;;;;;12236979;28;20034;-37
2023/08/23 17:08:09;;;;;;;;;;;26.30;99.90;;;;;;12225749;29;19931;-38
2023/08/23 17:14:10;;;;;;;;;;;26.50;99.90;;;;;;12228995;29;20011;-37
2023/08/23 17:20:12;;;;;;;;;;;26.60;99.90;;;;;;12229753;29;19930;-37
2023/08/23 17:26:14;;;;;;;;;;;26.70;99.90;;;;;;12227539;29;20292;-38
2023/08/23 17:32:17;;;;;;;;;;;26.80;99.90;;;;;;12223304;29;19985;-37
2023/08/23 17:38:18;;;;;;;;;;;26.90;99.90;;;;;;12226162;29;20335;-38
2023/08/23 17:44:20;;;;;;;;;;;26.10;99.90;;;;;;12241345;28;20455;-37
2023/08/23 17:50:22;;;;;;;;;;;26.10;99.90;;;;;;12238462;28;20575;-37
2023/08/23 17:56:24;;;;;;;;;;;26.00;99.90;;;;;;12226762;29;19935;-37
2023/08/23 18:02:26;;;;;;;;;;;25.70;99.90;;;;;;12235091;29;19927;-37
2023/08/23 18:08:28;;;;;;;;;;;25.40;99.90;;;;;;12229222;29;19969;-36
2023/08/23 18:14:30;;;;;;;;;;;24.90;99.90;;;;;;12228687;29;19935;-37
2023/08/23 18:20:31;;;;;;;;;;;24.60;99.90;;;;;;12235683;29;20026;-38
2023/08/23 18:26:33;;;;;;;;;;;24.10;99.90;;;;;;12235920;29;19974;-37
2023/08/23 18:32:35;;;;;;;;;;;23.90;99.90;;;;;;12236994;29;20017;-36
2023/08/23 18:38:38;;;;;;;;;;;23.60;99.90;;;;;;12244829;28;20049;-37
2023/08/23 18:44:39;;;;;;;;;;;23.20;99.90;;;;;;12240049;28;19931;-37
2023/08/23 18:50:41;;;;;;;;;;;22.70;99.90;;;;;;12234354;29;19930;-36
2023/08/23 18:56:44;;;;;;;;;;;22.30;99.90;;;;;;12234674;28;20244;-36
2023/08/23 19:02:47;;;;;;;;;;;21.80;99.90;;;;;;12236912;29;19986;-36
2023/08/23 19:08:49;;;;;;;;;;;21.20;99.90;;;;;;12234166;29;19939;-36
2023/08/23 19:14:53;;;;;;;;;;;20.90;99.90;;;;;;12233343;29;19962;-36
2023/08/23 19:20:58;;;;;;;;;;;20.80;99.90;;;;;;12230939;29;20470;-36
2023/08/23 19:27:01;;;;;;;;;;;20.50;99.90;;;;;;12232197;29;19954;-36
2023/08/23 19:33:03;;;;;;;;;;;20.30;99.90;;;;;;12230332;29;20458;-37
2023/08/23 19:39:05;;;;;;;;;;;20.30;99.90;;;;;;12224062;29;19934;-36
2023/08/23 19:45:07;;;;;;;;;;;20.20;99.90;;;;;;12225876;29;19926;-36
2023/08/23 19:51:13;;;;;;;;;;;20.30;99.90;;;;;;12231691;29;19937;-36
2023/08/23 19:57:27;;;;;;;;;;;20.30;99.90;;;;;;12227361;29;19934;-36
2023/08/23 20:03:29;;;;;;;;;;;20.30;99.90;;;;;;12230993;29;19962;-37
2023/08/23 20:09:31;;;;;;;;;;;19.90;99.90;;;;;;12226011;29;19931;-36
2023/08/23 20:15:36;;;;;;;;;;;19.40;99.90;;;;;;12230164;29;19981;-36
2023/08/23 20:21:40;;;;;;;;;;;19.40;99.90;;;;;;12228582;29;19954;-37
2023/08/23 20:27:42;;;;;;;;;;;19.30;99.90;;;;;;12231865;28;20037;-37
2023/08/23 20:33:45;;;;;;;;;;;19.30;99.90;;;;;;12230671;29;19931;-36
2023/08/23 20:39:47;;;;;;;;;;;19.40;99.90;;;;;;12227679;29;19935;-36
2023/08/23 20:45:48;;;;;;;;;;;19.40;99.90;;;;;;12228897;29;20477;-37
2023/08/23 20:51:51;;;;;;;;;;;19.50;99.90;;;;;;12232045;29;19927;-37
2023/08/23 20:57:52;;;;;;;;;;;19.70;99.90;;;;;;12229061;29;19934;-37
2023/08/23 21:03:55;;;;;;;;;;;19.90;99.90;;;;;;12231162;29;20391;-37
2023/08/23 21:09:57;;;;;;;;;;;20.10;99.90;;;;;;12228291;29;20026;-37
2023/08/23 21:15:59;;;;;;;;;;;20.00;99.90;;;;;;12230201;29;20029;-37
2023/08/23 21:22:00;;;;;;;;;;;19.90;99.90;;;;;;12227121;29;20302;-36
2023/08/23 21:28:06;;;;;;;;;;;20.00;99.90;;;;;;12227030;29;19938;-37
2023/08/23 21:34:08;;;;;;;;;;;20.00;99.90;;;;;;12229777;29;19930;-39
2023/08/23 21:40:10;;;;;;;;;;;19.70;99.90;;;;;;12232042;29;19931;-37
2023/08/23 21:46:12;;;;;;;;;;;19.50;99.90;;;;;;12230950;29;19930;-36
2023/08/23 21:52:14;;;;;;;;;;;19.70;99.90;;;;;;12233881;29;19950;-37
2023/08/23 21:58:15;;;;;;;;;;;19.80;99.90;;;;;;12233476;29;20029;-37
2023/08/23 22:04:17;;;;;;;;;;;20.00;99.90;;;;;;12236361;29;20724;-37
2023/08/23 22:10:19;;;;;;;;;;;20.20;99.90;;;;;;12233616;29;19931;-36
2023/08/23 22:16:21;;;;;;;;;;;20.00;99.90;;;;;;12231575;29;19931;-37
2023/08/23 22:22:23;;;;;;;;;;;19.80;99.90;;;;;;12230906;29;19931;-36
2023/08/23 22:28:26;;;;;;;;;;;19.80;99.90;;;;;;12234827;29;20307;-37
2023/08/23 22:34:28;;;;;;;;;;;19.70;99.90;;;;;;12236891;29;19931;-36
2023/08/23 22:40:29;;;;;;;;;;;19.70;99.90;;;;;;12232136;29;19938;-36
2023/08/23 22:46:31;;;;;;;;;;;19.70;99.90;;;;;;12229787;29;20026;-36
2023/08/23 22:52:34;;;;;;;;;;;18.90;99.90;;;;;;12233672;29;19934;-37
2023/08/23 22:58:35;;;;;;;;;;;18.60;99.90;;;;;;12230437;29;20014;-36
2023/08/23 23:04:38;;;;;;;;;;;18.80;99.90;;;;;;12234382;29;19937;-37
2023/08/23 23:10:40;;;;;;;;;;;18.90;99.90;;;;;;12241821;28;20347;-37
2023/08/23 23:16:42;;;;;;;;;;;18.80;99.90;;;;;;12233568;29;19931;-37
2023/08/23 23:22:44;;;;;;;;;;;18.40;99.90;;;;;;12233401;29;19934;-37
2023/08/23 23:28:45;;;;;;;;;;;18.50;99.90;;;;;;12233997;29;21025;-36
2023/08/23 23:34:47;;;;;;;;;;;18.70;99.90;;;;;;12242063;28;20259;-34
2023/08/23 23:40:49;;;;;;;;;;;18.70;99.90;;;;;;12225047;29;20077;-36
2023/08/23 23:46:51;;;;;;;;;;;18.50;99.90;;;;;;12230113;29;19958;-37
2023/08/23 23:52:53;;;;;;;;;;;18.30;99.90;;;;;;12230358;29;19926;-36
2023/08/23 23:58:55;;;;;;;;;;;18.00;99.90;;;;;;12227549;29;19939;-36
